Time;durP1;ratioP1;P1;durP2;ratioP2;P2;SDS_P1;SDS_P2;PMS_P1;PMS_P2;Temp;Humidity;BMP_temperature;BMP_pressure;BME280_temperature;BME280_humidity;BME280_pressure;Samples;Min_cycle;Max_cycle;Signal;HPM_P1;HPM_P2
2022/07/13 00:04:25;;;;;;;2.40;2.20;;;20.70;75.30;;;;;;10521028;28;20215;-79
2022/07/13 00:09:27;;;;;;;2.20;2.10;;;20.70;76.70;;;;;;10534082;28;20457;-79
2022/07/13 00:14:31;;;;;;;2.33;2.23;;;20.60;76.70;;;;;;10520342;28;20253;-79
2022/07/13 00:19:33;;;;;;;2.53;2.10;;;20.60;75.90;;;;;;10544712;28;20762;-80
2022/07/13 00:24:35;;;;;;;2.30;2.10;;;20.60;78.00;;;;;;10527101;28;20231;-78
2022/07/13 00:29:38;;;;;;;2.10;2.00;;;20.50;77.40;;;;;;10527901;28;20232;-79
2022/07/13 00:34:41;;;;;;;1.93;1.83;;;20.50;76.60;;;;;;10514546;28;20220;-82
2022/07/13 00:39:43;;;;;;;1.87;1.77;;;20.50;77.80;;;;;;10534233;28;20211;-79
2022/07/13 00:44:46;;;;;;;2.23;2.03;;;20.40;78.00;;;;;;10540313;22;20244;-82
2022/07/13 00:49:49;;;;;;;2.13;1.87;;;20.40;78.50;;;;;;10518424;28;20203;-81
2022/07/13 00:54:51;;;;;;;2.07;1.97;;;20.30;77.90;;;;;;10532878;28;20303;-82
2022/07/13 00:59:54;;;;;;;4.93;2.10;;;20.30;77.80;;;;;;10534535;28;20215;-81
2022/07/13 01:04:57;;;;;;;2.00;1.90;;;20.20;77.80;;;;;;10559959;28;20223;-82
2022/07/13 01:10:00;;;;;;;2.20;2.00;;;20.20;78.90;;;;;;10565984;28;20196;-81
2022/07/13 01:15:04;;;;;;;1.90;1.80;;;20.10;80.20;;;;;;10563803;28;20214;-81
2022/07/13 01:20:08;;;;;;;2.30;2.10;;;20.10;78.90;;;;;;10557630;28;20198;-82
2022/07/13 01:25:12;;;;;;;2.20;1.97;;;20.10;80.50;;;;;;10542623;28;20572;-83
2022/07/13 01:30:15;;;;;;;2.10;2.00;;;20.10;79.60;;;;;;10544161;28;20207;-81
2022/07/13 01:35:18;;;;;;;2.10;2.00;;;20.10;80.80;;;;;;10543287;28;20674;-82
2022/07/13 01:40:23;;;;;;;2.10;2.00;;;20.10;79.70;;;;;;10531614;28;20202;-82
2022/07/13 01:45:25;;;;;;;2.03;1.93;;;20.10;80.80;;;;;;10518303;28;20239;-81
2022/07/13 01:50:28;;;;;;;1.97;1.87;;;20.10;80.40;;;;;;10541526;28;20249;-81
2022/07/13 01:55:31;;;;;;;2.17;2.07;;;20.10;79.80;;;;;;10543307;28;20218;-81
2022/07/13 02:00:34;;;;;;;2.70;1.80;;;20.10;81.30;;;;;;10524544;28;20200;-81
2022/07/13 02:05:36;;;;;;;2.50;1.90;;;20.00;81.00;;;;;;10538602;28;20718;-81
2022/07/13 02:10:42;;;;;;;1.90;1.80;;;20.10;81.50;;;;;;10538195;28;20199;-81
2022/07/13 02:15:44;;;;;;;2.10;2.00;;;20.10;81.20;;;;;;10522482;28;20235;-82
2022/07/13 02:20:46;;;;;;;1.83;1.73;;;20.10;81.60;;;;;;10536775;28;20226;-82
2022/07/13 02:25:50;;;;;;;2.90;2.50;;;20.10;81.60;;;;;;10526689;28;20306;-82
2022/07/13 02:30:52;;;;;;;1.80;1.80;;;20.10;81.70;;;;;;10534777;28;20227;-82
2022/07/13 02:35:54;;;;;;;1.60;1.50;;;20.10;82.60;;;;;;10541763;28;20212;-82
2022/07/13 02:40:58;;;;;;;1.80;1.70;;;20.10;82.90;;;;;;10543251;28;20247;-82
2022/07/13 02:46:00;;;;;;;2.50;2.30;;;20.10;82.10;;;;;;10525358;28;20220;-81
2022/07/13 02:51:02;;;;;;;2.37;2.17;;;20.10;81.80;;;;;;10527750;28;20192;-82
2022/07/13 02:56:09;;;;;;;2.47;2.37;;;20.10;82.40;;;;;;10521447;28;20224;-82
2022/07/13 03:01:11;;;;;;;2.10;2.00;;;20.20;82.90;;;;;;10542653;28;20229;-82
2022/07/13 03:06:14;;;;;;;2.60;2.10;;;20.20;81.10;;;;;;10541981;28;20227;-82
2022/07/13 03:11:19;;;;;;;2.00;1.90;;;20.20;81.50;;;;;;10542242;28;20287;-81
2022/07/13 03:16:21;;;;;;;2.20;2.10;;;20.10;82.40;;;;;;10545075;28;20220;-82
2022/07/13 03:21:23;;;;;;;2.30;2.10;;;20.10;82.70;;;;;;10520281;28;20200;-82
2022/07/13 03:26:28;;;;;;;2.50;2.40;;;20.00;81.70;;;;;;10521772;28;20251;-82
2022/07/13 03:31:31;;;;;;;2.90;2.70;;;20.00;82.30;;;;;;10537726;28;20215;-82
2022/07/13 03:36:34;;;;;;;1.63;1.53;;;19.90;83.10;;;;;;10541393;28;20212;-82
2022/07/13 03:41:40;;;;;;;2.60;2.50;;;19.90;83.70;;;;;;10519041;28;20439;-83
2022/07/13 03:46:42;;;;;;;3.07;2.87;;;19.80;82.70;;;;;;10519913;28;20227;-82
2022/07/13 03:51:46;;;;;;;2.43;2.33;;;19.80;83.20;;;;;;10521773;28;20304;-82
2022/07/13 03:56:51;;;;;;;2.40;2.30;;;19.80;83.40;;;;;;10522479;28;20253;-82
2022/07/13 04:01:54;;;;;;;2.63;2.53;;;19.80;84.10;;;;;;10519386;28;20204;-81
2022/07/13 04:06:56;;;;;;;2.73;2.53;;;19.70;84.20;;;;;;10535610;28;20228;-82
2022/07/13 04:12:00;;;;;;;2.77;2.57;;;19.70;84.90;;;;;;10512626;28;20203;-82
2022/07/13 04:17:03;;;;;;;2.67;2.53;;;19.60;85.30;;;;;;10520124;28;20246;-82
2022/07/13 04:22:06;;;;;;;2.50;2.30;;;19.60;85.00;;;;;;10540047;28;20328;-82
2022/07/13 04:27:14;;;;;;;2.73;2.63;;;19.60;84.70;;;;;;10523191;28;20715;-82
2022/07/13 04:32:16;;;;;;;2.30;2.20;;;19.60;84.40;;;;;;10517392;28;20686;-82
2022/07/13 04:37:19;;;;;;;3.13;2.83;;;19.60;84.50;;;;;;10548835;28;20216;-82
2022/07/13 04:42:22;;;;;;;2.40;2.30;;;19.50;85.70;;;;;;10536634;28;20207;-82
2022/07/13 04:47:26;;;;;;;2.17;2.07;;;19.50;85.80;;;;;;10517394;28;20277;-80
2022/07/13 04:52:29;;;;;;;2.50;2.30;;;19.50;85.90;;;;;;10514583;28;20204;-80
2022/07/13 04:57:32;;;;;;;2.60;2.40;;;19.50;84.60;;;;;;10543168;28;20252;-81
2022/07/13 05:02:34;;;;;;;2.40;2.20;;;19.50;85.40;;;;;;10512200;28;20208;-81
2022/07/13 05:07:36;;;;;;;2.30;2.20;;;19.60;85.40;;;;;;10530413;28;20739;-82
2022/07/13 05:12:42;;;;;;;2.70;2.50;;;19.60;85.10;;;;;;10546066;28;20192;-82
2022/07/13 05:17:45;;;;;;;2.43;2.30;;;19.60;85.90;;;;;;10505375;28;20216;-82
2022/07/13 05:22:48;;;;;;;2.37;2.17;;;19.60;85.90;;;;;;10546877;28;20198;-82
2022/07/13 05:27:56;;;;;;;2.60;2.40;;;19.60;86.20;;;;;;10525370;28;20323;-82
2022/07/13 05:32:58;;;;;;;2.60;2.30;;;19.70;84.90;;;;;;10517980;28;20199;-82
2022/07/13 05:38:01;;;;;;;2.60;2.40;;;19.70;85.50;;;;;;10558802;28;20269;-82
2022/07/13 05:43:05;;;;;;;2.53;2.33;;;19.80;85.70;;;;;;10549076;28;20645;-82
2022/07/13 05:48:08;;;;;;;2.70;2.47;;;19.90;85.60;;;;;;10521792;28;20227;-82
2022/07/13 05:53:10;;;;;;;2.20;2.00;;;20.20;86.10;;;;;;10535322;28;20196;-82
2022/07/13 05:58:14;;;;;;;2.70;2.50;;;20.40;85.40;;;;;;10552809;28;20238;-82
2022/07/13 06:03:16;;;;;;;3.20;2.70;;;20.60;85.50;;;;;;10545537;28;20261;-82
2022/07/13 06:08:18;;;;;;;3.50;2.80;;;20.70;84.80;;;;;;10546494;28;20227;-82
2022/07/13 06:13:22;;;;;;;2.50;2.40;;;20.70;85.40;;;;;;10554150;28;20268;-83
2022/07/13 06:18:24;;;;;;;2.60;2.50;;;20.90;85.00;;;;;;10551021;28;20212;-84
2022/07/13 06:23:29;;;;;;;2.27;2.17;;;21.20;85.30;;;;;;10557886;28;20716;-84
2022/07/13 06:28:33;;;;;;;4.43;4.00;;;21.50;85.10;;;;;;10541395;28;20230;-82
2022/07/13 06:33:38;;;;;;;2.50;2.40;;;21.90;84.60;;;;;;10547677;28;20730;-82
2022/07/13 06:38:40;;;;;;;3.03;2.87;;;22.30;83.30;;;;;;10537244;28;20251;-83
2022/07/13 06:43:44;;;;;;;3.10;2.90;;;22.70;80.30;;;;;;10540615;28;21019;-83
2022/07/13 06:48:46;;;;;;;3.23;3.03;;;23.10;80.10;;;;;;10534896;22;20216;-80
2022/07/13 06:53:48;;;;;;;3.33;2.60;;;23.50;80.00;;;;;;10525645;28;20189;-80
2022/07/13 06:58:52;;;;;;;3.80;3.43;;;23.70;78.80;;;;;;10495477;28;20228;-80
2022/07/13 07:03:54;;;;;;;2.60;2.40;;;24.00;79.10;;;;;;10532005;28;20219;-80
2022/07/13 07:08:58;;;;;;;4.50;3.03;;;24.30;77.20;;;;;;10533658;28;20247;-81
2022/07/13 07:14:01;;;;;;;2.93;2.73;;;24.40;75.90;;;;;;10539947;28;20231;-80
2022/07/13 07:19:04;;;;;;;3.47;2.17;;;24.30;75.70;;;;;;10533890;28;20266;-80
2022/07/13 07:24:06;;;;;;;2.50;2.30;;;24.40;74.60;;;;;;10542949;28;20231;-78
2022/07/13 07:29:10;;;;;;;2.13;2.03;;;24.60;74.70;;;;;;10539726;28;20224;-80
2022/07/13 07:34:12;;;;;;;5.60;2.60;;;24.80;72.80;;;;;;10526318;28;20204;-79
2022/07/13 07:39:14;;;;;;;1.90;1.80;;;25.10;72.10;;;;;;10503882;28;20249;-78
2022/07/13 07:44:18;;;;;;;2.10;2.00;;;25.40;69.80;;;;;;10534105;28;20312;-80
2022/07/13 07:49:20;;;;;;;2.73;2.37;;;25.90;69.10;;;;;;10529053;28;20220;-80
2022/07/13 07:54:23;;;;;;;2.73;2.53;;;26.40;68.40;;;;;;10531933;28;20195;-78
2022/07/13 07:59:27;;;;;;;2.90;2.13;;;26.90;67.80;;;;;;10534050;28;20219;-80
2022/07/13 08:04:29;;;;;;;1.70;1.50;;;27.80;64.20;;;;;;10527516;28;20300;-82
2022/07/13 08:09:31;;;;;;;2.30;2.00;;;28.40;61.20;;;;;;10536978;28;20216;-81
2022/07/13 08:14:35;;;;;;;1.93;1.83;;;29.10;61.30;;;;;;10537323;28;20223;-81
2022/07/13 08:19:37;;;;;;;1.57;1.47;;;29.40;61.20;;;;;;10540762;28;20196;-82
2022/07/13 08:24:39;;;;;;;4.70;2.13;;;29.60;59.60;;;;;;10540852;28;20304;-79
2022/07/13 08:29:43;;;;;;;2.53;2.33;;;29.60;61.30;;;;;;10517410;28;20196;-80
2022/07/13 08:40:05;;;;;;;4.20;1.97;;;29.30;61.80;;;;;;10518729;28;20643;-78
2022/07/13 08:45:09;;;;;;;2.20;2.10;;;29.20;62.70;;;;;;10498613;28;20311;-78
2022/07/13 08:50:12;;;;;;;1.60;1.50;;;29.40;60.30;;;;;;10533385;28;20198;-79
2022/07/13 08:55:14;;;;;;;2.50;1.70;;;29.70;58.20;;;;;;10538123;28;20687;-79
2022/07/13 09:00:21;;;;;;;2.60;1.67;;;30.00;58.90;;;;;;10530497;28;20258;-79
2022/07/13 09:11:39;;;;;;;8.53;2.47;;;30.60;57.80;;;;;;10530914;28;20218;-80
2022/07/13 09:16:47;;;;;;;2.20;2.00;;;30.90;55.40;;;;;;10527898;28;20251;-80
2022/07/13 09:21:51;;;;;;;3.43;1.70;;;31.00;56.90;;;;;;10537628;28;20210;-80
2022/07/13 09:26:53;;;;;;;1.70;1.60;;;31.20;57.20;;;;;;10538722;28;20710;-79
2022/07/13 09:31:58;;;;;;;1.80;1.47;;;31.30;54.40;;;;;;10536073;28;20195;-80
2022/07/13 09:37:10;;;;;;;1.87;1.70;;;31.60;55.20;;;;;;10541173;28;20261;-79
2022/07/13 09:42:12;;;;;;;4.10;1.80;;;32.10;54.00;;;;;;10535035;28;20615;-79
2022/07/13 09:47:20;;;;;;;1.63;1.53;;;32.70;53.40;;;;;;10536305;28;20281;-80
2022/07/13 09:52:31;;;;;;;3.43;1.70;;;33.20;52.80;;;;;;10537072;28;20202;-79
2022/07/13 09:57:36;;;;;;;1.70;1.60;;;33.70;51.00;;;;;;10526007;28;20272;-79
2022/07/13 10:02:40;;;;;;;1.87;1.17;;;34.00;50.30;;;;;;10530303;28;20207;-80
2022/07/13 10:07:43;;;;;;;1.80;1.70;;;34.80;47.50;;;;;;10503778;28;20780;-80
2022/07/13 10:12:46;;;;;;;1.90;1.80;;;35.70;45.90;;;;;;10513466;28;20298;-80
2022/07/13 10:17:50;;;;;;;1.60;1.50;;;36.60;44.90;;;;;;10521459;28;20247;-82
2022/07/13 10:22:53;;;;;;;1.53;1.43;;;36.70;44.10;;;;;;10521183;28;20231;-82
2022/07/13 10:28:04;;;;;;;2.10;1.93;;;36.50;44.30;;;;;;10524342;28;20278;-79
2022/07/13 10:33:21;;;;;;;1.60;1.60;;;35.80;42.50;;;;;;10519879;28;20203;-80
2022/07/13 10:38:27;;;;;;;1.40;1.30;;;34.50;41.90;;;;;;10532477;28;20211;-79
2022/07/13 10:43:29;;;;;;;1.30;1.20;;;33.20;43.80;;;;;;10528193;28;20546;-82
2022/07/13 10:48:48;;;;;;;2.20;2.10;;;32.20;42.80;;;;;;10519694;28;20224;-83
2022/07/13 10:54:08;;;;;;;2.30;2.20;;;31.30;45.50;;;;;;10515243;28;20258;-79
2022/07/13 10:59:31;;;;;;;1.73;1.47;;;30.50;47.60;;;;;;10511869;28;20219;-80
2022/07/13 11:04:46;;;;;;;1.53;1.43;;;30.00;46.50;;;;;;10516777;28;20243;-80
2022/07/13 11:10:19;;;;;;;1.93;1.10;;;29.80;44.80;;;;;;10511860;28;20216;-80
2022/07/13 11:15:22;;;;;;;1.40;1.40;;;29.80;41.90;;;;;;10515468;28;20216;-80
2022/07/13 11:20:37;;;;;;;1.60;1.50;;;29.80;42.50;;;;;;10517627;28;20204;-80
2022/07/13 11:25:43;;;;;;;1.60;1.50;;;29.50;44.20;;;;;;10511480;28;20683;-80
2022/07/13 11:30:50;;;;;;;1.30;1.30;;;29.30;43.40;;;;;;10492361;28;20200;-80
2022/07/13 11:35:54;;;;;;;1.37;1.37;;;29.40;43.90;;;;;;10501363;28;20208;-80
2022/07/13 11:40:56;;;;;;;1.60;1.50;;;29.40;46.80;;;;;;10508928;28;20212;-80
2022/07/13 11:45:59;;;;;;;1.60;1.53;;;29.20;45.40;;;;;;10508341;28;20630;-80
2022/07/13 11:51:08;;;;;;;1.67;1.67;;;28.90;48.90;;;;;;10515870;28;20292;-80
2022/07/13 11:56:10;;;;;;;2.20;2.10;;;28.50;46.90;;;;;;10519307;28;20214;-82
2022/07/13 12:01:13;;;;;;;1.77;1.77;;;28.20;48.40;;;;;;10507694;28;20266;-81
2022/07/13 12:06:18;;;;;;;2.33;1.83;;;28.00;46.00;;;;;;10515926;28;20232;-79
2022/07/13 12:11:20;;;;;;;1.70;1.60;;;28.00;46.70;;;;;;10507852;28;20200;-80
2022/07/13 12:16:22;;;;;;;1.90;1.80;;;28.20;47.90;;;;;;10527953;28;20323;-80
2022/07/13 12:21:26;;;;;;;2.20;1.90;;;28.40;44.00;;;;;;10528861;28;20253;-79
2022/07/13 12:26:29;;;;;;;1.70;1.63;;;28.60;43.40;;;;;;10530528;28;20237;-80
2022/07/13 12:31:31;;;;;;;1.57;1.53;;;28.90;46.80;;;;;;10514518;28;20378;-80
2022/07/13 12:36:38;;;;;;;1.93;1.60;;;29.10;41.80;;;;;;10509995;28;20208;-80
2022/07/13 12:41:42;;;;;;;1.50;1.50;;;29.30;43.40;;;;;;10528328;28;20486;-80
2022/07/13 12:46:46;;;;;;;1.90;1.80;;;29.30;46.50;;;;;;10546771;22;20252;-80
2022/07/13 12:51:53;;;;;;;1.50;1.50;;;29.30;47.20;;;;;;10539246;28;20581;-79
2022/07/13 12:56:55;;;;;;;1.70;1.60;;;29.40;42.90;;;;;;10522139;28;20223;-80
2022/07/13 13:01:58;;;;;;;1.73;1.63;;;29.50;44.80;;;;;;10546618;28;20839;-79
2022/07/13 13:07:02;;;;;;;1.10;1.10;;;29.60;45.90;;;;;;10534164;28;20231;-80
2022/07/13 13:12:04;;;;;;;3.30;1.40;;;29.70;46.10;;;;;;10535929;28;20208;-79
2022/07/13 13:17:06;;;;;;;2.43;1.50;;;29.70;43.30;;;;;;10537625;28;20226;-79
2022/07/13 13:22:10;;;;;;;1.57;1.50;;;29.90;46.00;;;;;;10525844;28;20206;-80
2022/07/13 13:27:14;;;;;;;1.57;1.47;;;30.00;44.60;;;;;;10532293;28;20235;-79
2022/07/13 13:32:17;;;;;;;0.80;0.80;;;30.00;48.60;;;;;;10531864;28;20272;-79
2022/07/13 13:37:20;;;;;;;2.80;1.80;;;29.90;45.70;;;;;;10535385;28;20222;-79
2022/07/13 13:42:22;;;;;;;1.70;1.60;;;29.80;44.90;;;;;;10530002;28;20211;-79
2022/07/13 13:47:24;;;;;;;1.70;1.60;;;29.70;44.80;;;;;;10530089;28;20224;-80
2022/07/13 13:52:28;;;;;;;1.53;1.43;;;29.60;47.80;;;;;;10531676;28;20204;-79
2022/07/13 13:57:30;;;;;;;1.50;1.50;;;29.40;49.00;;;;;;10561460;28;20271;-79
2022/07/13 14:02:32;;;;;;;1.40;1.40;;;29.30;47.20;;;;;;10535617;28;20203;-79
2022/07/13 14:07:36;;;;;;;4.20;1.40;;;29.10;47.00;;;;;;10528433;28;20228;-79
2022/07/13 14:12:39;;;;;;;1.87;1.77;;;29.00;46.40;;;;;;10543683;28;20619;-79
2022/07/13 14:17:41;;;;;;;1.50;1.50;;;28.90;49.20;;;;;;10541174;28;20581;-79
2022/07/13 14:22:44;;;;;;;2.60;2.00;;;28.70;47.30;;;;;;10542161;28;20206;-79
2022/07/13 14:27:46;;;;;;;3.93;3.63;;;28.50;49.90;;;;;;10542189;28;20236;-80
2022/07/13 14:32:49;;;;;;;4.13;3.83;;;28.40;52.90;;;;;;10545288;28;20253;-80
2022/07/13 14:37:52;;;;;;;2.37;2.27;;;28.30;53.20;;;;;;10538408;28;20219;-79
2022/07/13 14:42:54;;;;;;;2.13;1.60;;;28.10;53.60;;;;;;10540557;28;20195;-80
2022/07/13 14:47:57;;;;;;;1.80;1.70;;;28.00;52.90;;;;;;10546248;28;20235;-80
2022/07/13 14:53:01;;;;;;;2.10;2.00;;;27.90;54.70;;;;;;10533288;28;20667;-82
2022/07/13 14:58:03;;;;;;;1.90;1.80;;;27.80;54.60;;;;;;10548735;28;20222;-82
2022/07/13 15:03:05;;;;;;;1.33;1.23;;;27.80;56.10;;;;;;10536200;28;20196;-80
2022/07/13 15:08:09;;;;;;;1.30;1.30;;;27.80;54.70;;;;;;10552803;28;20567;-82
2022/07/13 15:13:11;;;;;;;1.60;1.50;;;27.80;55.60;;;;;;10529984;28;20641;-80
2022/07/13 15:18:13;;;;;;;4.03;1.33;;;27.80;55.70;;;;;;10560485;28;20250;-82
2022/07/13 15:23:16;;;;;;;2.17;2.03;;;27.70;55.20;;;;;;10557801;28;20269;-82
2022/07/13 15:28:18;;;;;;;2.27;2.17;;;27.60;56.60;;;;;;10541569;28;20242;-80
2022/07/13 15:33:21;;;;;;;1.83;1.73;;;27.50;55.70;;;;;;10522786;28;20639;-79
2022/07/13 15:38:24;;;;;;;1.70;1.60;;;27.40;55.80;;;;;;10525575;28;20215;-79
2022/07/13 15:43:26;;;;;;;1.60;1.50;;;27.50;58.90;;;;;;10533580;28;20203;-80
2022/07/13 15:48:29;;;;;;;1.70;1.60;;;27.50;58.60;;;;;;10525864;28;20699;-79
2022/07/13 15:53:33;;;;;;;1.77;1.40;;;27.60;59.00;;;;;;10536508;28;20207;-79
2022/07/13 15:58:35;;;;;;;2.00;1.90;;;27.60;53.90;;;;;;10530988;28;20236;-80
2022/07/13 16:03:38;;;;;;;2.07;1.87;;;27.60;51.50;;;;;;10520921;28;20206;-80
2022/07/13 16:08:41;;;;;;;1.60;1.50;;;27.70;49.90;;;;;;10521360;28;20225;-79
2022/07/13 16:13:43;;;;;;;1.70;1.60;;;27.60;52.10;;;;;;10517167;28;20282;-79
2022/07/13 16:18:45;;;;;;;1.43;1.33;;;27.50;48.80;;;;;;10533594;28;20243;-79
2022/07/13 16:23:51;;;;;;;1.70;1.60;;;27.40;49.50;;;;;;10528142;28;20230;-79
2022/07/13 16:28:54;;;;;;;1.77;1.67;;;27.30;51.10;;;;;;10508770;28;20232;-78
2022/07/13 16:33:56;;;;;;;2.00;1.90;;;27.20;54.40;;;;;;10517491;28;20199;-79
2022/07/13 16:38:59;;;;;;;4.30;1.77;;;27.00;57.60;;;;;;10544313;28;20220;-79
2022/07/13 16:44:01;;;;;;;2.00;1.90;;;26.90;58.60;;;;;;10525498;28;20199;-81
2022/07/13 16:49:04;;;;;;;1.97;1.87;;;26.80;59.00;;;;;;10543330;28;20699;-80
2022/07/13 16:54:07;;;;;;;2.53;2.23;;;26.60;60.40;;;;;;10530420;28;20239;-79
2022/07/13 16:59:09;;;;;;;1.80;1.70;;;26.60;61.30;;;;;;10512215;28;20216;-81
2022/07/13 17:04:11;;;;;;;2.87;1.63;;;26.50;57.40;;;;;;10526188;28;20200;-79
2022/07/13 17:09:15;;;;;;;2.03;1.40;;;26.50;57.10;;;;;;10498764;28;20244;-81
2022/07/13 17:14:18;;;;;;;1.67;1.57;;;26.50;56.70;;;;;;10525708;28;20235;-79
2022/07/13 17:19:20;;;;;;;2.80;2.60;;;26.60;57.70;;;;;;10540270;28;20216;-79
2022/07/13 17:24:24;;;;;;;2.57;2.37;;;26.60;58.70;;;;;;10542219;28;20694;-79
2022/07/13 17:29:26;;;;;;;3.57;3.27;;;26.60;59.80;;;;;;10537986;28;20246;-79
2022/07/13 17:34:29;;;;;;;2.10;2.00;;;26.50;60.40;;;;;;10537234;28;20200;-80
2022/07/13 17:39:34;;;;;;;2.80;2.60;;;26.40;60.90;;;;;;10545480;28;20216;-79
2022/07/13 17:44:37;;;;;;;4.40;2.00;;;26.40;59.10;;;;;;10530510;28;20203;-79
2022/07/13 17:49:39;;;;;;;2.30;1.97;;;26.40;59.60;;;;;;10555028;28;20237;-79
2022/07/13 17:54:43;;;;;;;3.33;2.37;;;26.30;59.70;;;;;;10551080;28;20223;-79
2022/07/13 17:59:45;;;;;;;3.53;2.17;;;26.30;58.60;;;;;;10547737;28;20223;-80
2022/07/13 18:04:47;;;;;;;2.50;2.10;;;26.30;58.50;;;;;;10542595;28;20295;-80
2022/07/13 18:09:51;;;;;;;2.13;2.03;;;26.30;58.70;;;;;;10548491;28;20220;-79
2022/07/13 18:14:53;;;;;;;2.17;2.07;;;26.20;59.80;;;;;;10541787;28;20196;-79
2022/07/13 18:19:55;;;;;;;3.50;3.20;;;26.20;60.10;;;;;;10533551;28;20276;-80
2022/07/13 18:25:00;;;;;;;2.20;2.10;;;26.20;59.80;;;;;;10533441;28;20319;-80
2022/07/13 18:30:03;;;;;;;2.93;2.63;;;26.20;60.80;;;;;;10543773;28;20207;-79
2022/07/13 18:35:06;;;;;;;3.27;3.07;;;26.10;60.30;;;;;;10534347;28;20196;-80
2022/07/13 18:40:11;;;;;;;1.50;1.40;;;26.10;61.30;;;;;;10546767;28;20748;-78
2022/07/13 18:45:13;;;;;;;3.43;2.23;;;26.00;60.80;;;;;;10539617;28;20216;-80
2022/07/13 18:50:15;;;;;;;7.23;2.87;;;26.00;62.30;;;;;;10575735;22;20231;-84
2022/07/13 18:55:21;;;;;;;2.60;2.50;;;25.90;63.10;;;;;;10554829;28;20214;-81
2022/07/13 19:00:24;;;;;;;2.67;2.47;;;25.80;63.90;;;;;;10540821;28;20215;-83
2022/07/13 19:05:27;;;;;;;3.13;1.50;;;25.60;63.10;;;;;;10539286;28;20196;-82
2022/07/13 19:10:32;;;;;;;2.90;2.60;;;25.60;62.60;;;;;;10539760;28;20337;-84
2022/07/13 19:15:34;;;;;;;2.10;1.93;;;25.50;63.70;;;;;;10532672;28;20208;-81
2022/07/13 19:20:37;;;;;;;2.37;2.27;;;25.40;64.20;;;;;;10538962;28;20227;-81
2022/07/13 19:31:00;;;;;;;1.87;1.77;;;25.30;63.50;;;;;;10529640;28;20222;-81
2022/07/13 19:36:02;;;;;;;2.23;2.03;;;25.20;62.60;;;;;;10541032;28;20224;-81
2022/07/13 19:41:06;;;;;;;2.70;2.50;;;25.10;61.70;;;;;;10537006;28;20224;-82
2022/07/13 19:46:08;;;;;;;2.00;1.90;;;25.10;62.20;;;;;;10545639;28;20281;-80
2022/07/13 19:51:13;;;;;;;2.57;2.37;;;25.10;60.90;;;;;;10544598;28;20225;-79
2022/07/13 19:56:17;;;;;;;2.47;2.27;;;25.00;64.60;;;;;;10534001;28;20246;-82
2022/07/13 20:01:19;;;;;;;2.47;2.37;;;24.90;62.90;;;;;;10526383;28;20683;-80
2022/07/13 20:06:25;;;;;;;3.17;2.87;;;24.80;64.60;;;;;;10541319;28;20230;-79
2022/07/13 20:11:29;;;;;;;2.67;2.57;;;24.80;64.60;;;;;;10538228;28;20210;-81
2022/07/13 20:16:31;;;;;;;3.53;2.30;;;24.70;63.10;;;;;;10540488;28;20243;-80
2022/07/13 20:21:33;;;;;;;6.90;2.23;;;24.70;64.70;;;;;;10533792;28;20277;-80
2022/07/13 20:26:37;;;;;;;2.70;2.30;;;24.60;64.70;;;;;;10501875;28;20246;-79
2022/07/13 20:31:40;;;;;;;2.90;2.70;;;24.60;65.30;;;;;;10545613;28;20234;-79
2022/07/13 20:36:42;;;;;;;4.20;2.50;;;24.50;66.50;;;;;;10547838;28;20215;-80
2022/07/13 20:41:49;;;;;;;2.20;2.10;;;24.50;67.00;;;;;;10535705;28;20192;-79
2022/07/13 20:46:51;;;;;;;2.37;2.20;;;24.50;67.10;;;;;;10507511;28;20220;-80
2022/07/13 20:51:54;;;;;;;2.50;2.40;;;24.40;67.10;;;;;;10514964;28;20207;-80
2022/07/13 20:56:57;;;;;;;1.93;1.83;;;24.40;67.10;;;;;;10523631;28;20295;-82
2022/07/13 21:02:00;;;;;;;2.80;2.60;;;24.30;67.40;;;;;;10518509;28;20201;-82
2022/07/13 21:07:03;;;;;;;2.63;2.53;;;24.30;68.70;;;;;;10517977;28;20220;-82
2022/07/13 21:12:07;;;;;;;2.50;2.40;;;24.20;67.40;;;;;;10509743;28;20197;-79
2022/07/13 21:17:11;;;;;;;2.10;1.97;;;24.20;69.20;;;;;;10481057;28;20232;-79
2022/07/13 21:22:13;;;;;;;3.00;2.27;;;24.10;69.70;;;;;;10501945;28;20209;-79
2022/07/13 21:27:17;;;;;;;2.87;2.67;;;24.10;68.90;;;;;;10512879;28;20717;-80
2022/07/13 21:32:19;;;;;;;2.40;2.30;;;24.00;68.50;;;;;;10525404;28;20195;-80
2022/07/13 21:37:21;;;;;;;2.20;1.67;;;23.90;69.20;;;;;;10523458;28;20211;-80
2022/07/13 21:42:25;;;;;;;2.13;2.03;;;23.90;68.70;;;;;;10518060;28;20188;-79
2022/07/13 21:47:27;;;;;;;3.03;2.50;;;23.90;67.90;;;;;;10516581;28;20303;-82
2022/07/13 21:52:29;;;;;;;1.80;1.70;;;23.80;68.00;;;;;;10521806;28;20225;-82
2022/07/13 21:57:33;;;;;;;2.10;2.00;;;23.80;68.20;;;;;;10510083;28;20300;-83
2022/07/13 22:02:35;;;;;;;2.97;2.67;;;23.80;69.20;;;;;;10514161;28;20267;-82
2022/07/13 22:07:37;;;;;;;2.50;1.93;;;23.80;69.80;;;;;;10503230;28;20235;-82
2022/07/13 22:13:16;;;;;;;2.40;2.00;;;23.80;69.10;;;;;;10524687;28;20310;-82
2022/07/13 22:18:56;;;;;;;6.30;2.20;;;23.80;68.90;;;;;;10507696;28;20303;-82
2022/07/13 22:24:36;;;;;;;2.70;2.50;;;23.80;67.90;;;;;;10523407;28;20207;-81
2022/07/13 22:30:15;;;;;;;2.40;2.20;;;23.70;68.00;;;;;;10525010;28;20220;-84
2022/07/13 22:35:55;;;;;;;2.20;2.10;;;23.70;67.70;;;;;;10531111;28;20674;-82
2022/07/13 22:41:34;;;;;;;2.17;1.97;;;23.70;67.70;;;;;;10528230;28;20222;-82
2022/07/13 22:47:14;;;;;;;2.20;2.10;;;23.70;67.50;;;;;;10519592;28;20604;-81
2022/07/13 22:52:53;;;;;;;2.40;2.30;;;23.70;67.20;;;;;;10508620;28;20201;-81
2022/07/13 22:58:33;;;;;;;1.70;1.60;;;23.70;67.70;;;;;;10519394;28;20284;-82
2022/07/13 23:04:13;;;;;;;2.30;2.20;;;23.70;67.80;;;;;;10539631;28;20701;-82
2022/07/13 23:09:52;;;;;;;2.33;2.10;;;23.60;67.70;;;;;;10521102;28;20216;-82
2022/07/13 23:15:31;;;;;;;1.90;1.80;;;23.60;67.80;;;;;;10520964;28;20192;-82
2022/07/13 23:21:11;;;;;;;1.97;1.87;;;23.60;67.70;;;;;;10527915;28;20222;-82
2022/07/13 23:26:50;;;;;;;2.03;1.83;;;23.50;67.20;;;;;;10530555;28;20721;-82
2022/07/13 23:32:00;;;;;;;2.10;2.00;;;23.50;67.40;;;;;;10526378;28;20307;-82
2022/07/13 23:37:02;;;;;;;2.23;1.87;;;23.40;66.90;;;;;;10512044;28;20927;-82
2022/07/13 23:42:07;;;;;;;3.13;1.97;;;23.40;65.90;;;;;;10514745;28;20228;-82
2022/07/13 23:47:10;;;;;;;1.90;1.80;;;23.40;67.00;;;;;;10517737;28;20236;-82
2022/07/13 23:52:12;;;;;;;1.67;1.57;;;23.30;65.80;;;;;;10512398;28;20668;-81
2022/07/13 23:57:15;;;;;;;1.80;1.70;;;23.30;66.60;;;;;;10522812;28;20678;-82
